sensor_id;sensor_type;location;lat;lon;timestamp;pressure;altitude;pressure_sealevel;temperature;humidity
75409;BME280;63979;55.644;37.734;2023-09-30T00:03:59;100590.84;;;16.15;66.45
75409;BME280;63979;55.644;37.734;2023-09-30T00:09:01;100584.97;;;16.10;65.78
75409;BME280;63979;55.644;37.734;2023-09-30T00:14:03;100586.69;;;16.11;65.66
75409;BME280;63979;55.644;37.734;2023-09-30T00:19:05;100590.13;;;16.13;65.41
75409;BME280;63979;55.644;37.734;2023-09-30T00:24:06;100579.47;;;16.11;64.98
75409;BME280;63979;55.644;37.734;2023-09-30T00:29:08;100580.09;;;16.04;65.57
75409;BME280;63979;55.644;37.734;2023-09-30T00:34:11;100581.66;;;15.95;66.15
75409;BME280;63979;55.644;37.734;2023-09-30T00:39:12;100580.28;;;15.89;65.90
75409;BME280;63979;55.644;37.734;2023-09-30T00:44:13;100569.03;;;15.84;66.17
75409;BME280;63979;55.644;37.734;2023-09-30T00:49:14;100567.19;;;15.85;65.95
75409;BME280;63979;55.644;37.734;2023-09-30T00:54:17;100538.44;;;15.63;66.17
75409;BME280;63979;55.644;37.734;2023-09-30T00:59:18;100551.53;;;15.68;66.50
75409;BME280;63979;55.644;37.734;2023-09-30T01:04:20;100564.59;;;15.61;66.92
75409;BME280;63979;55.644;37.734;2023-09-30T01:09:21;100564.50;;;15.63;67.14
75409;BME280;63979;55.644;37.734;2023-09-30T01:14:33;100567.38;;;15.59;67.17
75409;BME280;63979;55.644;37.734;2023-09-30T01:19:41;100558.91;;;15.53;67.09
75409;BME280;63979;55.644;37.734;2023-09-30T01:24:44;100566.25;;;15.51;67.31
75409;BME280;63979;55.644;37.734;2023-09-30T01:29:48;100567.56;;;15.45;67.13
75409;BME280;63979;55.644;37.734;2023-09-30T01:34:49;100563.91;;;15.46;66.97
75409;BME280;63979;55.644;37.734;2023-09-30T01:39:50;100565.00;;;15.44;66.89
75409;BME280;63979;55.644;37.734;2023-09-30T01:44:56;100524.53;;;15.10;68.05
75409;BME280;63979;55.644;37.734;2023-09-30T01:49:58;100555.75;;;15.24;68.87
75409;BME280;63979;55.644;37.734;2023-09-30T01:55:00;100561.25;;;15.22;69.78
75409;BME280;63979;55.644;37.734;2023-09-30T02:00:01;100553.88;;;15.13;70.74
75409;BME280;63979;55.644;37.734;2023-09-30T02:05:03;100559.75;;;15.07;71.53
75409;BME280;63979;55.644;37.734;2023-09-30T02:10:05;100562.03;;;15.01;70.73
75409;BME280;63979;55.644;37.734;2023-09-30T02:15:09;100555.53;;;14.92;70.90
75409;BME280;63979;55.644;37.734;2023-09-30T02:20:12;100555.69;;;14.78;71.99
75409;BME280;63979;55.644;37.734;2023-09-30T02:25:16;100557.41;;;14.79;71.52
75409;BME280;63979;55.644;37.734;2023-09-30T02:30:17;100552.94;;;14.66;72.82
75409;BME280;63979;55.644;37.734;2023-09-30T02:35:18;100553.16;;;14.63;73.50
75409;BME280;63979;55.644;37.734;2023-09-30T02:40:21;100546.31;;;14.59;72.77
75409;BME280;63979;55.644;37.734;2023-09-30T02:45:25;100547.19;;;14.47;75.34
75409;BME280;63979;55.644;37.734;2023-09-30T02:50:26;100534.63;;;14.35;75.33
75409;BME280;63979;55.644;37.734;2023-09-30T02:55:27;100539.69;;;14.27;76.43
75409;BME280;63979;55.644;37.734;2023-09-30T03:00:28;100531.97;;;14.22;76.53
75409;BME280;63979;55.644;37.734;2023-09-30T03:05:33;100525.72;;;14.22;76.36
75409;BME280;63979;55.644;37.734;2023-09-30T03:10:35;100529.19;;;14.24;76.02
75409;BME280;63979;55.644;37.734;2023-09-30T03:15:41;100524.22;;;14.30;74.34
75409;BME280;63979;55.644;37.734;2023-09-30T03:20:43;100523.13;;;14.33;73.73
75409;BME280;63979;55.644;37.734;2023-09-30T03:25:44;100527.09;;;14.40;73.18
75409;BME280;63979;55.644;37.734;2023-09-30T03:30:45;100517.63;;;14.47;72.58
75409;BME280;63979;55.644;37.734;2023-09-30T03:35:46;100523.00;;;14.47;72.84
75409;BME280;63979;55.644;37.734;2023-09-30T03:40:47;100491.78;;;14.21;73.92
75409;BME280;63979;55.644;37.734;2023-09-30T03:45:48;100519.81;;;14.29;75.44
75409;BME280;63979;55.644;37.734;2023-09-30T03:50:50;100526.16;;;14.28;77.06
75409;BME280;63979;55.644;37.734;2023-09-30T03:55:53;100529.13;;;14.36;76.72
75409;BME280;63979;55.644;37.734;2023-09-30T04:00:56;100525.69;;;14.47;75.89
75409;BME280;63979;55.644;37.734;2023-09-30T04:05:58;100528.75;;;14.66;74.69
75409;BME280;63979;55.644;37.734;2023-09-30T04:10:59;100520.38;;;14.82;73.63
75409;BME280;63979;55.644;37.734;2023-09-30T04:16:00;100519.41;;;15.07;72.86
75409;BME280;63979;55.644;37.734;2023-09-30T04:21:02;100509.91;;;15.25;70.93
75409;BME280;63979;55.644;37.734;2023-09-30T04:26:05;100519.34;;;15.66;70.02
75409;BME280;63979;55.644;37.734;2023-09-30T04:31:06;100527.91;;;15.71;68.31
75409;BME280;63979;55.644;37.734;2023-09-30T04:36:08;100517.38;;;15.79;66.89
75409;BME280;63979;55.644;37.734;2023-09-30T04:41:10;100522.53;;;16.16;65.69
75409;BME280;63979;55.644;37.734;2023-09-30T04:46:11;100526.66;;;16.97;62.69
75409;BME280;63979;55.644;37.734;2023-09-30T04:51:13;100503.09;;;18.53;58.00
75409;BME280;63979;55.644;37.734;2023-09-30T04:56:17;100521.03;;;19.89;53.52
75409;BME280;63979;55.644;37.734;2023-09-30T05:01:17;100530.53;;;21.03;51.05
75409;BME280;63979;55.644;37.734;2023-09-30T05:06:19;100531.06;;;22.54;46.46
75409;BME280;63979;55.644;37.734;2023-09-30T05:11:20;100529.41;;;23.27;46.57
75409;BME280;63979;55.644;37.734;2023-09-30T05:16:20;100523.72;;;24.49;42.24
75409;BME280;63979;55.644;37.734;2023-09-30T05:21:21;100524.72;;;25.56;40.64
75409;BME280;63979;55.644;37.734;2023-09-30T05:26:22;100532.25;;;25.31;39.01
75409;BME280;63979;55.644;37.734;2023-09-30T05:31:23;100531.31;;;25.70;38.06
75409;BME280;63979;55.644;37.734;2023-09-30T05:36:24;100528.69;;;26.21;36.92
75409;BME280;63979;55.644;37.734;2023-09-30T05:41:25;100519.63;;;27.22;35.67
75409;BME280;63979;55.644;37.734;2023-09-30T05:46:29;100518.97;;;27.62;34.15
75409;BME280;63979;55.644;37.734;2023-09-30T05:51:31;100514.94;;;28.21;32.92
75409;BME280;63979;55.644;37.734;2023-09-30T05:56:33;100509.25;;;28.70;31.50
75409;BME280;63979;55.644;37.734;2023-09-30T06:01:34;100520.69;;;28.26;32.84
75409;BME280;63979;55.644;37.734;2023-09-30T06:06:40;100507.22;;;28.85;31.44
75409;BME280;63979;55.644;37.734;2023-09-30T06:11:43;100504.56;;;29.91;30.06
75409;BME280;63979;55.644;37.734;2023-09-30T06:16:44;100503.28;;;29.80;29.88
75409;BME280;63979;55.644;37.734;2023-09-30T06:21:45;100508.41;;;29.51;30.67
75409;BME280;63979;55.644;37.734;2023-09-30T06:26:46;100503.25;;;29.08;30.93
75409;BME280;63979;55.644;37.734;2023-09-30T06:31:49;100484.88;;;29.35;31.37
75409;BME280;63979;55.644;37.734;2023-09-30T06:36:50;100481.19;;;30.27;29.70
75409;BME280;63979;55.644;37.734;2023-09-30T06:41:53;100458.09;;;30.72;28.92
75409;BME280;63979;55.644;37.734;2023-09-30T06:46:54;100485.22;;;30.76;29.03
75409;BME280;63979;55.644;37.734;2023-09-30T06:51:55;100474.88;;;30.06;29.91
75409;BME280;63979;55.644;37.734;2023-09-30T06:56:56;100483.03;;;31.47;28.07
75409;BME280;63979;55.644;37.734;2023-09-30T07:01:57;100485.16;;;31.70;27.49
75409;BME280;63979;55.644;37.734;2023-09-30T07:06:59;100488.44;;;32.77;25.97
75409;BME280;63979;55.644;37.734;2023-09-30T07:12:00;100491.84;;;32.79;25.84
75409;BME280;63979;55.644;37.734;2023-09-30T07:17:01;100456.78;;;34.55;23.63
75409;BME280;63979;55.644;37.734;2023-09-30T07:22:05;100481.34;;;34.63;23.49
75409;BME280;63979;55.644;37.734;2023-09-30T07:27:06;100477.34;;;34.42;23.76
75409;BME280;63979;55.644;37.734;2023-09-30T07:32:07;100473.97;;;34.68;23.36
75409;BME280;63979;55.644;37.734;2023-09-30T07:37:10;100471.44;;;34.67;23.13
75409;BME280;63979;55.644;37.734;2023-09-30T07:42:11;100471.16;;;35.09;22.42
75409;BME280;63979;55.644;37.734;2023-09-30T07:47:12;100462.75;;;36.48;21.30
75409;BME280;63979;55.644;37.734;2023-09-30T07:52:13;100470.09;;;37.08;20.71
75409;BME280;63979;55.644;37.734;2023-09-30T07:57:14;100463.16;;;35.96;22.03
75409;BME280;63979;55.644;37.734;2023-09-30T08:02:15;100446.56;;;37.21;20.19
75409;BME280;63979;55.644;37.734;2023-09-30T08:07:16;100461.38;;;37.26;19.75
75409;BME280;63979;55.644;37.734;2023-09-30T08:12:17;100447.72;;;36.27;20.38
75409;BME280;63979;55.644;37.734;2023-09-30T08:17:18;100447.56;;;37.41;19.60
75409;BME280;63979;55.644;37.734;2023-09-30T08:22:19;100445.44;;;36.02;21.25
75409;BME280;63979;55.644;37.734;2023-09-30T08:27:20;100438.56;;;36.75;20.58
75409;BME280;63979;55.644;37.734;2023-09-30T08:32:21;100440.13;;;36.66;19.83
75409;BME280;63979;55.644;37.734;2023-09-30T08:37:23;100430.88;;;36.34;20.49
75409;BME280;63979;55.644;37.734;2023-09-30T08:42:26;100432.44;;;37.69;18.67
75409;BME280;63979;55.644;37.734;2023-09-30T08:47:33;100424.44;;;38.25;18.72
75409;BME280;63979;55.644;37.734;2023-09-30T08:52:40;100409.94;;;37.39;19.08
75409;BME280;63979;55.644;37.734;2023-09-30T08:57:41;100420.19;;;37.28;18.98
75409;BME280;63979;55.644;37.734;2023-09-30T09:02:43;100405.69;;;37.68;18.92
75409;BME280;63979;55.644;37.734;2023-09-30T09:07:44;100405.84;;;37.14;19.10
75409;BME280;63979;55.644;37.734;2023-09-30T09:12:54;100411.38;;;36.34;19.16
75409;BME280;63979;55.644;37.734;2023-09-30T09:17:56;100407.09;;;36.04;19.30
75409;BME280;63979;55.644;37.734;2023-09-30T09:22:57;100390.56;;;34.58;20.82
75409;BME280;63979;55.644;37.734;2023-09-30T09:28:00;100380.81;;;34.56;20.93
75409;BME280;63979;55.644;37.734;2023-09-30T09:33:02;100384.91;;;35.32;20.17
75409;BME280;63979;55.644;37.734;2023-09-30T09:38:07;100372.72;;;35.72;18.94
75409;BME280;63979;55.644;37.734;2023-09-30T09:43:09;100381.47;;;34.46;20.30
75409;BME280;63979;55.644;37.734;2023-09-30T09:48:10;100382.03;;;33.33;21.34
75409;BME280;63979;55.644;37.734;2023-09-30T09:53:13;100374.19;;;32.35;22.57
75409;BME280;63979;55.644;37.734;2023-09-30T09:58:16;100358.47;;;34.34;20.17
75409;BME280;63979;55.644;37.734;2023-09-30T10:03:18;100363.78;;;35.31;19.10
75409;BME280;63979;55.644;37.734;2023-09-30T10:08:21;100353.44;;;34.76;19.86
75409;BME280;63979;55.644;37.734;2023-09-30T10:13:50;100368.97;;;36.00;18.80
75409;BME280;63979;55.644;37.734;2023-09-30T10:19:13;100381.16;;;35.77;18.84
75409;BME280;63979;55.644;37.734;2023-09-30T10:29:39;100365.09;;;35.62;19.04
75409;BME280;63979;55.644;37.734;2023-09-30T10:34:48;100351.44;;;35.39;19.31
75409;BME280;63979;55.644;37.734;2023-09-30T10:39:58;100310.97;;;32.92;21.51
75409;BME280;63979;55.644;37.734;2023-09-30T10:45:00;100346.75;;;34.32;20.14
75409;BME280;63979;55.644;37.734;2023-09-30T10:50:02;100308.97;;;34.71;19.51
75409;BME280;63979;55.644;37.734;2023-09-30T10:55:05;100333.69;;;33.64;21.01
75409;BME280;63979;55.644;37.734;2023-09-30T11:00:11;100314.81;;;34.41;19.61
75409;BME280;63979;55.644;37.734;2023-09-30T11:05:12;100318.09;;;36.48;17.97
75409;BME280;63979;55.644;37.734;2023-09-30T11:10:18;100311.78;;;35.26;18.36
75409;BME280;63979;55.644;37.734;2023-09-30T11:15:20;100304.38;;;36.73;17.27
75409;BME280;63979;55.644;37.734;2023-09-30T11:20:21;100255.72;;;31.90;22.53
75409;BME280;63979;55.644;37.734;2023-09-30T11:25:22;100305.31;;;32.86;21.93
75409;BME280;63979;55.644;37.734;2023-09-30T11:30:24;100285.31;;;34.68;19.94
75409;BME280;63979;55.644;37.734;2023-09-30T11:35:27;100297.41;;;33.89;20.85
75409;BME280;63979;55.644;37.734;2023-09-30T11:40:29;100283.56;;;32.37;22.39
75409;BME280;63979;55.644;37.734;2023-09-30T11:45:30;100278.84;;;30.48;25.00
75409;BME280;63979;55.644;37.734;2023-09-30T11:50:50;100271.66;;;31.58;23.31
75409;BME280;63979;55.644;37.734;2023-09-30T11:55:53;100268.63;;;32.26;22.51
75409;BME280;63979;55.644;37.734;2023-09-30T12:00:58;100260.31;;;32.68;22.33
75409;BME280;63979;55.644;37.734;2023-09-30T12:06:03;100262.88;;;34.08;21.06
75409;BME280;63979;55.644;37.734;2023-09-30T12:11:04;100257.00;;;33.64;20.26
75409;BME280;63979;55.644;37.734;2023-09-30T12:16:05;100255.44;;;31.98;22.74
75409;BME280;63979;55.644;37.734;2023-09-30T12:21:09;100220.13;;;33.75;20.32
75409;BME280;63979;55.644;37.734;2023-09-30T12:26:11;100216.34;;;33.53;20.88
75409;BME280;63979;55.644;37.734;2023-09-30T12:31:12;100240.09;;;33.77;20.82
75409;BME280;63979;55.644;37.734;2023-09-30T12:36:14;100216.09;;;32.79;21.73
75409;BME280;63979;55.644;37.734;2023-09-30T12:41:15;100231.78;;;30.74;24.92
75409;BME280;63979;55.644;37.734;2023-09-30T12:46:16;100234.00;;;31.45;23.63
75409;BME280;63979;55.644;37.734;2023-09-30T12:51:19;100231.16;;;31.15;23.78
75409;BME280;63979;55.644;37.734;2023-09-30T12:56:20;100217.38;;;31.33;23.76
75409;BME280;63979;55.644;37.734;2023-09-30T13:01:21;100219.59;;;29.69;25.65
75409;BME280;63979;55.644;37.734;2023-09-30T13:06:23;100206.47;;;29.13;26.49
75409;BME280;63979;55.644;37.734;2023-09-30T13:11:24;100206.16;;;29.86;25.42
75409;BME280;63979;55.644;37.734;2023-09-30T13:16:25;100192.81;;;28.60;27.24
75409;BME280;63979;55.644;37.734;2023-09-30T13:21:26;100196.63;;;28.59;27.58
75409;BME280;63979;55.644;37.734;2023-09-30T13:26:27;100192.94;;;29.18;26.75
75409;BME280;63979;55.644;37.734;2023-09-30T13:31:28;100154.03;;;29.59;25.90
75409;BME280;63979;55.644;37.734;2023-09-30T13:36:31;100180.47;;;29.15;26.67
75409;BME280;63979;55.644;37.734;2023-09-30T13:41:35;100183.13;;;28.24;28.41
75409;BME280;63979;55.644;37.734;2023-09-30T13:46:36;100181.16;;;27.92;28.67
75409;BME280;63979;55.644;37.734;2023-09-30T13:51:37;100171.13;;;27.58;29.25
75409;BME280;63979;55.644;37.734;2023-09-30T13:56:39;100163.63;;;28.00;28.89
75409;BME280;63979;55.644;37.734;2023-09-30T14:01:40;100165.16;;;27.34;29.99
75409;BME280;63979;55.644;37.734;2023-09-30T14:06:42;100160.72;;;26.92;30.98
75409;BME280;63979;55.644;37.734;2023-09-30T14:11:43;100069.97;;;25.77;31.81
75409;BME280;63979;55.644;37.734;2023-09-30T14:16:44;100159.53;;;25.17;33.65
75409;BME280;63979;55.644;37.734;2023-09-30T14:21:46;100141.00;;;24.69;34.57
75409;BME280;63979;55.644;37.734;2023-09-30T14:26:47;100152.22;;;24.21;35.43
75409;BME280;63979;55.644;37.734;2023-09-30T14:31:48;100132.28;;;23.60;36.43
75409;BME280;63979;55.644;37.734;2023-09-30T14:36:49;100147.19;;;23.42;37.66
75409;BME280;63979;55.644;37.734;2023-09-30T14:41:51;100145.50;;;23.10;38.29
75409;BME280;63979;55.644;37.734;2023-09-30T14:46:52;100106.00;;;22.66;38.58
75409;BME280;63979;55.644;37.734;2023-09-30T14:51:56;100149.56;;;22.66;39.81
75409;BME280;63979;55.644;37.734;2023-09-30T14:56:57;100148.56;;;22.51;40.53
75409;BME280;63979;55.644;37.734;2023-09-30T15:01:58;100137.44;;;22.22;40.62
75409;BME280;63979;55.644;37.734;2023-09-30T15:06:59;100135.91;;;22.11;41.12
75409;BME280;63979;55.644;37.734;2023-09-30T15:12:01;100133.53;;;22.08;41.62
75409;BME280;63979;55.644;37.734;2023-09-30T15:17:02;100136.41;;;21.98;41.14
75409;BME280;63979;55.644;37.734;2023-09-30T15:22:03;100104.97;;;21.71;41.99
75409;BME280;63979;55.644;37.734;2023-09-30T15:27:04;100132.31;;;21.78;41.82
75409;BME280;63979;55.644;37.734;2023-09-30T15:32:06;100128.91;;;21.68;42.15
75409;BME280;63979;55.644;37.734;2023-09-30T15:37:07;100124.97;;;21.46;43.15
75409;BME280;63979;55.644;37.734;2023-09-30T15:42:08;100120.91;;;21.34;43.30
75409;BME280;63979;55.644;37.734;2023-09-30T15:47:12;100127.34;;;21.33;43.47
75409;BME280;63979;55.644;37.734;2023-09-30T15:52:14;100131.84;;;21.16;44.11
75409;BME280;63979;55.644;37.734;2023-09-30T15:57:15;100126.75;;;21.13;43.61
75409;BME280;63979;55.644;37.734;2023-09-30T16:02:16;100113.81;;;20.99;44.46
75409;BME280;63979;55.644;37.734;2023-09-30T16:07:17;100120.09;;;20.99;44.44
75409;BME280;63979;55.644;37.734;2023-09-30T16:12:18;100124.00;;;21.05;44.75
75409;BME280;63979;55.644;37.734;2023-09-30T16:17:19;100117.22;;;21.09;44.85
75409;BME280;63979;55.644;37.734;2023-09-30T16:22:20;100113.31;;;20.95;45.22
75409;BME280;63979;55.644;37.734;2023-09-30T16:27:21;100084.22;;;20.71;44.88
75409;BME280;63979;55.644;37.734;2023-09-30T16:32:23;100112.53;;;20.77;45.66
75409;BME280;63979;55.644;37.734;2023-09-30T16:37:24;100105.91;;;20.71;45.85
75409;BME280;63979;55.644;37.734;2023-09-30T16:42:27;100104.47;;;20.51;46.80
75409;BME280;63979;55.644;37.734;2023-09-30T16:47:32;100106.88;;;20.54;46.30
75409;BME280;63979;55.644;37.734;2023-09-30T16:52:33;100100.59;;;20.28;47.71
75409;BME280;63979;55.644;37.734;2023-09-30T16:57:35;100090.94;;;20.33;46.87
75409;BME280;63979;55.644;37.734;2023-09-30T17:02:36;100085.97;;;20.20;47.46
75409;BME280;63979;55.644;37.734;2023-09-30T17:07:38;100083.84;;;20.06;48.02
75409;BME280;63979;55.644;37.734;2023-09-30T17:12:39;100077.69;;;19.96;48.13
75409;BME280;63979;55.644;37.734;2023-09-30T17:17:41;100067.53;;;19.98;47.97
75409;BME280;63979;55.644;37.734;2023-09-30T17:22:42;100064.72;;;19.82;48.85
75409;BME280;63979;55.644;37.734;2023-09-30T17:27:43;100064.19;;;19.78;48.92
75409;BME280;63979;55.644;37.734;2023-09-30T17:32:44;100063.88;;;19.63;49.56
75409;BME280;63979;55.644;37.734;2023-09-30T17:37:45;100060.53;;;19.70;49.27
75409;BME280;63979;55.644;37.734;2023-09-30T17:42:48;100060.53;;;19.70;49.20
75409;BME280;63979;55.644;37.734;2023-09-30T17:47:49;100054.69;;;19.56;50.02
75409;BME280;63979;55.644;37.734;2023-09-30T17:52:50;100045.09;;;19.44;50.49
75409;BME280;63979;55.644;37.734;2023-09-30T17:57:51;100040.53;;;19.45;50.55
75409;BME280;63979;55.644;37.734;2023-09-30T18:02:52;100043.31;;;19.35;50.54
75409;BME280;63979;55.644;37.734;2023-09-30T18:07:53;100025.31;;;19.26;51.23
75409;BME280;63979;55.644;37.734;2023-09-30T18:12:55;100028.94;;;19.17;51.47
75409;BME280;63979;55.644;37.734;2023-09-30T18:17:56;100025.22;;;19.18;51.60
75409;BME280;63979;55.644;37.734;2023-09-30T18:22:58;99996.78;;;18.78;51.82
75409;BME280;63979;55.644;37.734;2023-09-30T18:28:00;100020.28;;;18.95;52.33
75409;BME280;63979;55.644;37.734;2023-09-30T18:33:03;100021.97;;;18.96;52.30
75409;BME280;63979;55.644;37.734;2023-09-30T18:38:05;100017.25;;;18.98;52.07
75409;BME280;63979;55.644;37.734;2023-09-30T18:43:07;100010.16;;;18.97;52.15
75409;BME280;63979;55.644;37.734;2023-09-30T18:48:12;100009.22;;;19.07;51.99
75409;BME280;63979;55.644;37.734;2023-09-30T18:53:14;100000.41;;;19.05;51.91
75409;BME280;63979;55.644;37.734;2023-09-30T18:58:16;99999.00;;;19.00;52.67
75409;BME280;63979;55.644;37.734;2023-09-30T19:03:18;100001.25;;;19.05;52.52
75409;BME280;63979;55.644;37.734;2023-09-30T19:08:19;99999.13;;;19.09;52.17
75409;BME280;63979;55.644;37.734;2023-09-30T19:13:21;99990.50;;;18.95;53.01
75409;BME280;63979;55.644;37.734;2023-09-30T19:18:22;99983.78;;;18.99;52.57
75409;BME280;63979;55.644;37.734;2023-09-30T19:23:23;99983.56;;;18.75;53.03
75409;BME280;63979;55.644;37.734;2023-09-30T19:28:24;99977.22;;;18.84;53.57
75409;BME280;63979;55.644;37.734;2023-09-30T19:33:26;99954.25;;;18.70;53.09
75409;BME280;63979;55.644;37.734;2023-09-30T19:38:28;99970.50;;;18.88;53.38
75409;BME280;63979;55.644;37.734;2023-09-30T19:43:29;99971.50;;;18.87;53.43
75409;BME280;63979;55.644;37.734;2023-09-30T19:48:30;99934.63;;;18.68;53.58
75409;BME280;63979;55.644;37.734;2023-09-30T19:53:32;99968.66;;;18.89;53.51
75409;BME280;63979;55.644;37.734;2023-09-30T19:58:34;99968.81;;;18.87;53.15
75409;BME280;63979;55.644;37.734;2023-09-30T20:03:35;99954.81;;;18.74;53.86
75409;BME280;63979;55.644;37.734;2023-09-30T20:08:36;99921.63;;;18.54;53.90
75409;BME280;63979;55.644;37.734;2023-09-30T20:13:38;99951.06;;;18.57;54.29
75409;BME280;63979;55.644;37.734;2023-09-30T20:18:39;99952.13;;;18.47;54.30
75409;BME280;63979;55.644;37.734;2023-09-30T20:23:40;99948.44;;;18.48;54.78
75409;BME280;63979;55.644;37.734;2023-09-30T20:28:42;99944.53;;;18.32;55.06
75409;BME280;63979;55.644;37.734;2023-09-30T20:33:44;99939.44;;;18.29;55.42
75409;BME280;63979;55.644;37.734;2023-09-30T20:38:46;99941.59;;;18.26;55.32
75409;BME280;63979;55.644;37.734;2023-09-30T20:43:47;99931.22;;;18.21;55.18
75409;BME280;63979;55.644;37.734;2023-09-30T20:48:49;99939.28;;;18.03;56.39
75409;BME280;63979;55.644;37.734;2023-09-30T20:53:50;99932.44;;;18.09;55.65
75409;BME280;63979;55.644;37.734;2023-09-30T20:58:52;99928.47;;;18.03;56.22
75409;BME280;63979;55.644;37.734;2023-09-30T21:03:54;99932.59;;;18.07;56.27
75409;BME280;63979;55.644;37.734;2023-09-30T21:08:55;99922.22;;;18.03;56.34
75409;BME280;63979;55.644;37.734;2023-09-30T21:13:56;99912.31;;;17.94;56.71
75409;BME280;63979;55.644;37.734;2023-09-30T21:18:57;99876.94;;;17.69;56.95
75409;BME280;63979;55.644;37.734;2023-09-30T21:23:59;99917.72;;;17.94;56.05
75409;BME280;63979;55.644;37.734;2023-09-30T21:29:01;99913.41;;;18.01;56.33
75409;BME280;63979;55.644;37.734;2023-09-30T21:34:02;99896.72;;;17.88;56.55
75409;BME280;63979;55.644;37.734;2023-09-30T21:39:03;99902.13;;;17.88;57.00
75409;BME280;63979;55.644;37.734;2023-09-30T21:44:09;99898.66;;;17.95;56.23
75409;BME280;63979;55.644;37.734;2023-09-30T21:49:12;99890.63;;;17.86;56.89
75409;BME280;63979;55.644;37.734;2023-09-30T21:54:14;99895.31;;;17.84;56.90
75409;BME280;63979;55.644;37.734;2023-09-30T21:59:15;99880.41;;;17.80;56.90
75409;BME280;63979;55.644;37.734;2023-09-30T22:04:16;99837.28;;;17.60;56.53
75409;BME280;63979;55.644;37.734;2023-09-30T22:09:17;99876.03;;;17.79;56.85
75409;BME280;63979;55.644;37.734;2023-09-30T22:14:18;99870.78;;;17.77;57.17
75409;BME280;63979;55.644;37.734;2023-09-30T22:19:21;99869.78;;;17.68;56.73
75409;BME280;63979;55.644;37.734;2023-09-30T22:24:22;99870.06;;;17.65;57.11
75409;BME280;63979;55.644;37.734;2023-09-30T22:29:24;99865.50;;;17.66;57.05
75409;BME280;63979;55.644;37.734;2023-09-30T22:34:25;99852.16;;;17.64;56.95
75409;BME280;63979;55.644;37.734;2023-09-30T22:39:26;99854.78;;;17.56;57.49
75409;BME280;63979;55.644;37.734;2023-09-30T22:44:27;99845.53;;;17.59;57.27
75409;BME280;63979;55.644;37.734;2023-09-30T22:49:28;99842.28;;;17.55;57.15
75409;BME280;63979;55.644;37.734;2023-09-30T22:54:29;99824.13;;;17.48;57.21
75409;BME280;63979;55.644;37.734;2023-09-30T22:59:30;99839.56;;;17.55;57.20
75409;BME280;63979;55.644;37.734;2023-09-30T23:04:31;99838.56;;;17.56;57.18
75409;BME280;63979;55.644;37.734;2023-09-30T23:09:32;99789.56;;;17.24;57.52
75409;BME280;63979;55.644;37.734;2023-09-30T23:14:33;99821.88;;;17.43;57.28
75409;BME280;63979;55.644;37.734;2023-09-30T23:19:34;99822.44;;;17.46;57.41
75409;BME280;63979;55.644;37.734;2023-09-30T23:24:36;99820.75;;;17.45;56.93
75409;BME280;63979;55.644;37.734;2023-09-30T23:29:37;99817.34;;;17.43;57.64
75409;BME280;63979;55.644;37.734;2023-09-30T23:34:39;99819.19;;;17.43;57.22
75409;BME280;63979;55.644;37.734;2023-09-30T23:39:42;99797.81;;;17.22;57.56
75409;BME280;63979;55.644;37.734;2023-09-30T23:44:43;99820.34;;;17.40;57.35
75409;BME280;63979;55.644;37.734;2023-09-30T23:49:47;99789.88;;;17.21;58.10
75409;BME280;63979;55.644;37.734;2023-09-30T23:54:48;99806.88;;;17.31;57.66
75409;BME280;63979;55.644;37.734;2023-09-30T23:59:49;99808.00;;;17.28;57.94
